Time;durP1;ratioP1;P1;durP2;ratioP2;P2;SDS_P1;SDS_P2;PMS_P1;PMS_P2;Temp;Humidity;BMP_temperature;BMP_pressure;BME280_temperature;BME280_humidity;BME280_pressure;Samples;Min_cycle;Max_cycle;Signal;HPM_P1;HPM_P2
2023/11/18 00:02:37;;;;;;;24.73;18.65;;;;;;;;;;10234163;28;20080;-55
2023/11/18 00:07:35;;;;;;;20.67;18.13;;;;;;;;;;10233433;28;20084;-55
2023/11/18 00:12:34;;;;;;;22.83;18.38;;;;;;;;;;10234276;28;20079;-53
2023/11/18 00:17:33;;;;;;;23.05;19.35;;;;;;;;;;10233833;28;20079;-51
2023/11/18 00:22:33;;;;;;;22.92;19.65;;;;;;;;;;10233090;28;20072;-50
2023/11/18 00:27:31;;;;;;;25.08;22.30;;;;;;;;;;10232787;28;20104;-50
2023/11/18 00:32:29;;;;;;;24.58;21.35;;;;;;;;;;10232560;28;20065;-50
2023/11/18 00:37:27;;;;;;;28.05;21.60;;;;;;;;;;10231661;28;20097;-54
2023/11/18 00:42:27;;;;;;;30.75;25.30;;;;;;;;;;10230778;28;20068;-47
2023/11/18 00:47:25;;;;;;;29.25;25.80;;;;;;;;;;10231116;28;20517;-52
2023/11/18 00:52:24;;;;;;;28.73;24.15;;;;;;;;;;10223531;28;20045;-49
2023/11/18 00:57:22;;;;;;;32.60;24.55;;;;;;;;;;10231658;28;20084;-51
2023/11/18 01:02:22;;;;;;;27.95;24.45;;;;;;;;;;10232731;28;20089;-51
2023/11/18 01:07:20;;;;;;;31.27;26.35;;;;;;;;;;10232549;28;20117;-52
2023/11/18 01:12:18;;;;;;;30.40;25.83;;;;;;;;;;10229811;28;20073;-55
2023/11/18 01:17:17;;;;;;;28.40;24.50;;;;;;;;;;10230492;28;20081;-55
2023/11/18 01:22:18;;;;;;;27.98;24.98;;;;;;;;;;10232346;28;20470;-53
2023/11/18 01:27:16;;;;;;;30.40;24.90;;;;;;;;;;10232616;28;20086;-50
2023/11/18 01:32:14;;;;;;;32.78;25.05;;;;;;;;;;10234461;28;20064;-50
2023/11/18 01:37:14;;;;;;;28.10;23.27;;;;;;;;;;10237588;28;20065;-56
2023/11/18 01:42:14;;;;;;;29.45;24.55;;;;;;;;;;10239764;28;20057;-53
2023/11/18 01:47:13;;;;;;;31.10;25.80;;;;;;;;;;10224298;28;20073;-53
2023/11/18 01:52:11;;;;;;;29.77;23.83;;;;;;;;;;10227989;28;20041;-49
2023/11/18 01:57:14;;;;;;;25.63;22.58;;;;;;;;;;10228959;28;20088;-54
2023/11/18 02:02:14;;;;;;;26.17;21.98;;;;;;;;;;10228349;28;20073;-55
2023/11/18 02:07:14;;;;;;;27.42;23.15;;;;;;;;;;10228630;28;20080;-54
2023/11/18 02:12:21;;;;;;;25.42;21.90;;;;;;;;;;10236884;28;20525;-51
2023/11/18 02:17:22;;;;;;;25.52;22.65;;;;;;;;;;10237179;28;20084;-55
2023/11/18 02:22:21;;;;;;;23.85;21.35;;;;;;;;;;10236507;28;20064;-54
2023/11/18 02:27:24;;;;;;;25.15;22.25;;;;;;;;;;10227984;28;20049;-54
2023/11/18 02:32:26;;;;;;;27.25;22.30;;;;;;;;;;10228733;28;20041;-53
2023/11/18 02:37:26;;;;;;;30.17;23.88;;;;;;;;;;10235885;28;20470;-54
2023/11/18 02:42:27;;;;;;;23.23;20.77;;;;;;;;;;10235629;28;20073;-55
2023/11/18 02:47:27;;;;;;;22.02;19.70;;;;;;;;;;10235780;28;20065;-55
2023/11/18 02:52:26;;;;;;;23.60;20.40;;;;;;;;;;10234263;28;20061;-55
2023/11/18 02:57:24;;;;;;;20.58;18.48;;;;;;;;;;10236803;28;20073;-50
2023/11/18 03:02:23;;;;;;;20.63;17.73;;;;;;;;;;10235150;28;20089;-52
2023/11/18 03:07:22;;;;;;;20.38;18.20;;;;;;;;;;10236030;28;20072;-52
2023/11/18 03:12:20;;;;;;;25.60;16.35;;;;;;;;;;10236523;28;20079;-54
2023/11/18 03:17:21;;;;;;;18.75;16.77;;;;;;;;;;10236163;28;20946;-54
2023/11/18 03:22:20;;;;;;;19.63;16.27;;;;;;;;;;10235332;28;20073;-55
2023/11/18 03:27:19;;;;;;;16.30;14.60;;;;;;;;;;10235571;28;20081;-55
2023/11/18 03:32:17;;;;;;;14.48;13.02;;;;;;;;;;10235742;28;20084;-54
2023/11/18 03:37:15;;;;;;;15.55;13.50;;;;;;;;;;10233451;28;20073;-54
2023/11/18 03:42:15;;;;;;;13.00;11.75;;;;;;;;;;10233430;28;20065;-56
2023/11/18 03:47:15;;;;;;;13.13;11.93;;;;;;;;;;10230446;28;20073;-54
2023/11/18 03:52:13;;;;;;;14.32;12.25;;;;;;;;;;10233195;28;20037;-56
2023/11/18 03:57:12;;;;;;;11.57;10.43;;;;;;;;;;10229462;28;20077;-53
2023/11/18 04:02:12;;;;;;;11.80;10.70;;;;;;;;;;10234458;28;20073;-55
2023/11/18 04:07:10;;;;;;;10.23;9.18;;;;;;;;;;10233863;28;20472;-53
2023/11/18 04:12:09;;;;;;;7.85;7.15;;;;;;;;;;10233461;28;20503;-54
2023/11/18 04:17:07;;;;;;;7.68;6.88;;;;;;;;;;10233728;28;20081;-54
2023/11/18 04:22:08;;;;;;;6.68;5.97;;;;;;;;;;10233586;28;20072;-54
2023/11/18 04:27:06;;;;;;;5.32;4.93;;;;;;;;;;10232409;28;20096;-51
2023/11/18 04:32:06;;;;;;;6.72;5.07;;;;;;;;;;10232855;28;20072;-56
2023/11/18 04:37:04;;;;;;;5.25;4.85;;;;;;;;;;10231829;28;20107;-54
2023/11/18 04:42:04;;;;;;;4.15;3.85;;;;;;;;;;10233768;28;20076;-55
2023/11/18 04:47:02;;;;;;;3.75;3.45;;;;;;;;;;10232813;28;20073;-54
2023/11/18 04:52:01;;;;;;;3.80;3.50;;;;;;;;;;10233071;28;20083;-52
2023/11/18 04:56:59;;;;;;;3.80;3.50;;;;;;;;;;10230978;28;20077;-53
2023/11/18 05:01:58;;;;;;;4.57;4.18;;;;;;;;;;10230549;28;20081;-54
2023/11/18 05:06:57;;;;;;;3.60;3.00;;;;;;;;;;10235826;28;20077;-50
2023/11/18 05:11:55;;;;;;;3.28;2.97;;;;;;;;;;10239774;28;20069;-55
2023/11/18 05:16:53;;;;;;;3.25;3.00;;;;;;;;;;10239495;28;20076;-53
2023/11/18 05:21:53;;;;;;;2.90;2.70;;;;;;;;;;10240734;28;20080;-48
2023/11/18 05:26:52;;;;;;;3.00;2.80;;;;;;;;;;10240759;28;20088;-52
2023/11/18 05:31:52;;;;;;;3.10;2.80;;;;;;;;;;10237738;28;20077;-51
2023/11/18 05:36:54;;;;;;;3.60;3.30;;;;;;;;;;10239615;28;20080;-53
2023/11/18 05:41:55;;;;;;;3.75;3.45;;;;;;;;;;10239457;28;20081;-46
2023/11/18 05:46:54;;;;;;;3.38;3.08;;;;;;;;;;10236987;28;20080;-49
2023/11/18 05:51:52;;;;;;;3.47;3.17;;;;;;;;;;10238891;28;20072;-51
2023/11/18 05:56:51;;;;;;;3.72;2.83;;;;;;;;;;10238195;28;20073;-47
2023/11/18 06:01:50;;;;;;;3.80;3.50;;;;;;;;;;10238280;28;20081;-47
2023/11/18 06:06:49;;;;;;;3.15;2.95;;;;;;;;;;10234956;28;20069;-54
2023/11/18 06:11:49;;;;;;;3.22;3.03;;;;;;;;;;10231715;28;20076;-54
2023/11/18 06:16:50;;;;;;;3.92;3.63;;;;;;;;;;10231515;28;20073;-53
2023/11/18 06:21:49;;;;;;;3.15;2.95;;;;;;;;;;10232654;28;20536;-51
2023/11/18 06:26:49;;;;;;;8.50;3.05;;;;;;;;;;10234154;28;20073;-52
2023/11/18 06:31:48;;;;;;;6.35;4.40;;;;;;;;;;10235414;28;20037;-54
2023/11/18 06:36:46;;;;;;;4.32;4.03;;;;;;;;;;10229114;28;20518;-57
2023/11/18 06:41:51;;;;;;;3.40;3.10;;;;;;;;;;10235161;28;20068;-54
2023/11/18 06:46:50;;;;;;;2.90;2.70;;;;;;;;;;10233487;28;20076;-52
2023/11/18 06:51:49;;;;;;;3.97;3.08;;;;;;;;;;10236574;28;20072;-50
2023/11/18 06:56:51;;;;;;;4.55;3.47;;;;;;;;;;10232625;28;20073;-49
2023/11/18 07:01:49;;;;;;;4.57;4.18;;;;;;;;;;10223616;28;20099;-52
2023/11/18 07:06:47;;;;;;;4.65;4.13;;;;;;;;;;10233084;28;20072;-53
2023/11/18 07:11:46;;;;;;;3.83;2.78;;;;;;;;;;10232953;28;20065;-52
2023/11/18 07:16:46;;;;;;;4.95;4.55;;;;;;;;;;10233925;28;20178;-54
2023/11/18 07:21:45;;;;;;;4.35;3.58;;;;;;;;;;10226322;28;20115;-55
2023/11/18 07:26:44;;;;;;;3.90;3.50;;;;;;;;;;10210445;28;20451;-52
2023/11/18 07:31:43;;;;;;;4.13;3.65;;;;;;;;;;10228077;28;20076;-50
2023/11/18 07:36:45;;;;;;;5.40;3.97;;;;;;;;;;10229111;28;20084;-54
2023/11/18 07:41:44;;;;;;;6.25;5.20;;;;;;;;;;10230451;28;20476;-50
2023/11/18 07:46:43;;;;;;;5.18;3.35;;;;;;;;;;10231442;28;20061;-54
2023/11/18 07:51:43;;;;;;;5.57;4.30;;;;;;;;;;10223656;28;20080;-55
2023/11/18 07:56:42;;;;;;;7.60;5.10;;;;;;;;;;10223071;28;20073;-53
2023/11/18 08:01:44;;;;;;;5.57;3.83;;;;;;;;;;10220478;28;20078;-52
2023/11/18 08:06:44;;;;;;;6.20;4.80;;;;;;;;;;10229932;28;20073;-52
2023/11/18 08:11:42;;;;;;;4.80;3.78;;;;;;;;;;10226388;28;20072;-53
2023/11/18 08:16:40;;;;;;;9.07;6.32;;;;;;;;;;10229144;28;20115;-52
2023/11/18 08:21:39;;;;;;;5.72;4.97;;;;;;;;;;10223531;28;20518;-54
2023/11/18 08:26:39;;;;;;;5.18;3.65;;;;;;;;;;10229757;28;20077;-54
2023/11/18 08:31:37;;;;;;;2.85;2.63;;;;;;;;;;10224647;28;20080;-52
2023/11/18 08:36:35;;;;;;;3.83;3.45;;;;;;;;;;10228947;28;20073;-54
2023/11/18 08:41:36;;;;;;;3.35;3.05;;;;;;;;;;10226957;28;20076;-56
2023/11/18 08:46:35;;;;;;;5.97;5.38;;;;;;;;;;10224434;28;20326;-56
2023/11/18 08:51:34;;;;;;;5.45;4.82;;;;;;;;;;10216988;28;20082;-53
2023/11/18 08:56:34;;;;;;;3.25;2.95;;;;;;;;;;10236365;28;20519;-54
2023/11/18 09:01:34;;;;;;;5.50;3.30;;;;;;;;;;10231442;28;21027;-51
2023/11/18 09:06:34;;;;;;;5.82;5.22;;;;;;;;;;10242122;28;20045;-55
2023/11/18 09:11:33;;;;;;;9.55;6.03;;;;;;;;;;10235250;28;20569;-52
2023/11/18 09:16:33;;;;;;;4.20;3.63;;;;;;;;;;10241067;28;20844;-51
2023/11/18 09:21:35;;;;;;;2.35;2.15;;;;;;;;;;10236589;28;20537;-52
2023/11/18 09:26:35;;;;;;;3.30;3.00;;;;;;;;;;10228581;28;20076;-54
2023/11/18 09:31:33;;;;;;;4.07;2.63;;;;;;;;;;10228808;28;20068;-51
2023/11/18 09:36:33;;;;;;;9.55;8.25;;;;;;;;;;10241506;28;20545;-53
2023/11/18 09:41:33;;;;;;;6.57;5.75;;;;;;;;;;10236283;28;20093;-52
2023/11/18 09:46:40;;;;;;;3.80;3.50;;;;;;;;;;10236377;28;20487;-53
2023/11/18 09:51:39;;;;;;;4.03;3.63;;;;;;;;;;10239880;28;20500;-49
2023/11/18 09:56:56;;;;;;;4.50;4.10;;;;;;;;;;10230001;28;20483;-51
2023/11/18 10:01:58;;;;;;;4.68;4.28;;;;;;;;;;10241549;28;20083;-54
2023/11/18 10:06:57;;;;;;;3.50;3.20;;;;;;;;;;10240898;28;20079;-55
2023/11/18 10:12:00;;;;;;;4.75;4.35;;;;;;;;;;10245589;28;20538;-55
2023/11/18 10:17:00;;;;;;;4.50;4.10;;;;;;;;;;10246720;28;20073;-56
2023/11/18 10:21:58;;;;;;;4.68;4.28;;;;;;;;;;10244642;28;20074;-55
2023/11/18 10:27:01;;;;;;;4.93;3.90;;;;;;;;;;10239653;28;20095;-55
2023/11/18 10:32:09;;;;;;;11.63;7.70;;;;;;;;;;10252169;28;20069;-53
2023/11/18 10:37:10;;;;;;;11.68;8.65;;;;;;;;;;10240942;28;20077;-54
2023/11/18 10:42:11;;;;;;;7.03;5.05;;;;;;;;;;10244159;28;20527;-56
2023/11/18 10:47:14;;;;;;;12.00;10.73;;;;;;;;;;10237284;28;20593;-55
2023/11/18 10:52:12;;;;;;;15.32;11.32;;;;;;;;;;10246378;28;20076;-54
2023/11/18 10:57:11;;;;;;;12.70;10.80;;;;;;;;;;10244288;28;20073;-52
2023/11/18 11:02:23;;;;;;;14.07;11.27;;;;;;;;;;10247821;28;20505;-55
2023/11/18 11:07:23;;;;;;;21.23;12.88;;;;;;;;;;10238810;28;20145;-54
2023/11/18 11:12:24;;;;;;;17.23;13.45;;;;;;;;;;10241396;28;20490;-55
2023/11/18 11:17:29;;;;;;;11.88;9.25;;;;;;;;;;10250535;28;20107;-54
2023/11/18 11:22:35;;;;;;;8.48;6.97;;;;;;;;;;10239714;28;20072;-53
2023/11/18 11:27:39;;;;;;;15.00;10.90;;;;;;;;;;10235406;28;20104;-52
2023/11/18 11:32:48;;;;;;;6.22;5.63;;;;;;;;;;10245067;28;20065;-54
2023/11/18 11:37:47;;;;;;;8.63;6.70;;;;;;;;;;10250972;28;20104;-54
2023/11/18 11:42:45;;;;;;;7.10;6.40;;;;;;;;;;10247702;28;20065;-54
2023/11/18 11:47:46;;;;;;;9.23;7.50;;;;;;;;;;10246713;28;20077;-53
2023/11/18 11:52:47;;;;;;;11.48;7.13;;;;;;;;;;10247150;28;20076;-55
2023/11/18 11:57:53;;;;;;;10.15;8.23;;;;;;;;;;10238666;28;20069;-53
2023/11/18 12:02:54;;;;;;;7.90;6.95;;;;;;;;;;10246939;28;20076;-52
2023/11/18 12:07:54;;;;;;;13.98;12.48;;;;;;;;;;10250362;28;20068;-55
2023/11/18 12:13:07;;;;;;;9.88;8.98;;;;;;;;;;10248040;28;20069;-56
2023/11/18 12:18:17;;;;;;;11.98;10.70;;;;;;;;;;10248077;28;20075;-56
2023/11/18 12:23:17;;;;;;;10.55;8.27;;;;;;;;;;10246004;28;20079;-53
2023/11/18 12:28:16;;;;;;;13.07;8.38;;;;;;;;;;10250048;28;20083;-49
2023/11/18 12:33:19;;;;;;;9.75;8.60;;;;;;;;;;10244291;28;20080;-53
2023/11/18 12:38:47;;;;;;;8.82;4.63;;;;;;;;;;10247387;28;20065;-54
2023/11/18 12:43:49;;;;;;;17.98;14.73;;;;;;;;;;10245085;28;20529;-54
2023/11/18 12:48:51;;;;;;;18.25;14.93;;;;;;;;;;10248663;28;20092;-55
2023/11/18 12:53:53;;;;;;;12.35;11.15;;;;;;;;;;10247736;28;20159;-53
2023/11/18 12:58:51;;;;;;;10.55;7.00;;;;;;;;;;10233181;28;20527;-57
2023/11/18 13:03:56;;;;;;;11.02;8.13;;;;;;;;;;10244589;28;20076;-55
2023/11/18 13:08:56;;;;;;;16.90;11.50;;;;;;;;;;10244980;28;20065;-55
2023/11/18 13:13:54;;;;;;;10.43;8.15;;;;;;;;;;10247076;28;20076;-53
2023/11/18 13:18:56;;;;;;;11.93;10.52;;;;;;;;;;10248099;28;20084;-54
2023/11/18 13:23:54;;;;;;;27.55;16.77;;;;;;;;;;10248373;28;20534;-54
2023/11/18 13:28:53;;;;;;;14.98;12.10;;;;;;;;;;10247011;28;20080;-55
2023/11/18 13:33:53;;;;;;;12.60;10.18;;;;;;;;;;10254315;28;20061;-52
2023/11/18 13:38:53;;;;;;;12.98;9.38;;;;;;;;;;10252820;28;20072;-54
2023/11/18 13:43:52;;;;;;;13.40;11.07;;;;;;;;;;10249080;28;20065;-55
2023/11/18 13:48:51;;;;;;;14.00;12.48;;;;;;;;;;10253344;28;20120;-54
2023/11/18 13:53:49;;;;;;;16.58;13.80;;;;;;;;;;10251635;28;20530;-56
2023/11/18 13:58:49;;;;;;;13.13;11.65;;;;;;;;;;10245850;28;20092;-53
2023/11/18 14:03:48;;;;;;;19.30;15.20;;;;;;;;;;10251293;28;20077;-54
2023/11/18 14:08:46;;;;;;;11.10;7.53;;;;;;;;;;10252691;28;20073;-50
2023/11/18 14:13:45;;;;;;;10.07;8.57;;;;;;;;;;10252876;28;20080;-51
2023/11/18 14:18:45;;;;;;;21.85;15.00;;;;;;;;;;10248487;28;20507;-53
2023/11/18 14:23:43;;;;;;;16.88;12.00;;;;;;;;;;10243650;28;20076;-51
2023/11/18 14:28:42;;;;;;;20.55;17.13;;;;;;;;;;10247365;28;20083;-53
2023/11/18 14:33:40;;;;;;;15.70;12.60;;;;;;;;;;10244274;28;20077;-47
2023/11/18 14:38:40;;;;;;;18.73;13.40;;;;;;;;;;10238233;28;20500;-56
2023/11/18 14:43:38;;;;;;;19.73;17.70;;;;;;;;;;10249324;28;20072;-53
2023/11/18 14:48:37;;;;;;;17.67;12.40;;;;;;;;;;10250112;28;20076;-56
2023/11/18 14:53:35;;;;;;;22.88;16.35;;;;;;;;;;10245622;28;20069;-55
2023/11/18 14:58:35;;;;;;;21.08;16.17;;;;;;;;;;10245553;28;20579;-55
2023/11/18 15:03:33;;;;;;;25.92;20.45;;;;;;;;;;10243588;28;20080;-55
2023/11/18 15:08:32;;;;;;;21.75;18.48;;;;;;;;;;10245413;28;20545;-53
2023/11/18 15:13:30;;;;;;;68.22;56.78;;;;;;;;;;10248858;28;20079;-56
2023/11/18 15:18:30;;;;;;;44.28;37.45;;;;;;;;;;10240002;28;20064;-55
2023/11/18 15:23:28;;;;;;;10.73;9.60;;;;;;;;;;10240904;28;20068;-52
2023/11/18 15:28:27;;;;;;;24.13;19.40;;;;;;;;;;10232158;28;20068;-54
2023/11/18 15:33:25;;;;;;;8.65;7.75;;;;;;;;;;10244117;28;20463;-55
2023/11/18 15:38:24;;;;;;;34.05;30.83;;;;;;;;;;10237992;28;20073;-55
2023/11/18 15:43:23;;;;;;;15.32;13.93;;;;;;;;;;10236612;28;20095;-54
2023/11/18 15:48:21;;;;;;;33.60;29.42;;;;;;;;;;10228856;28;20076;-55
2023/11/18 15:53:19;;;;;;;19.73;16.00;;;;;;;;;;10226808;28;20076;-54
2023/11/18 15:58:22;;;;;;;14.32;12.20;;;;;;;;;;10224984;28;20084;-54
2023/11/18 16:03:20;;;;;;;16.90;13.98;;;;;;;;;;10230128;28;20080;-53
2023/11/18 16:08:19;;;;;;;22.00;19.23;;;;;;;;;;10229431;28;20064;-55
2023/11/18 16:13:19;;;;;;;83.68;74.82;;;;;;;;;;10232945;28;20621;-55
2023/11/18 16:18:18;;;;;;;16.85;15.15;;;;;;;;;;10234111;28;20069;-55
2023/11/18 16:23:17;;;;;;;14.77;13.48;;;;;;;;;;10233819;28;20088;-56
2023/11/18 16:28:15;;;;;;;29.15;26.25;;;;;;;;;;10232781;28;20065;-53
2023/11/18 16:33:15;;;;;;;9.93;8.05;;;;;;;;;;10233357;28;20099;-54
2023/11/18 16:38:13;;;;;;;6.05;5.45;;;;;;;;;;10231262;28;20080;-56
2023/11/18 16:43:11;;;;;;;4.95;4.30;;;;;;;;;;10231944;28;20510;-57
2023/11/18 16:48:10;;;;;;;6.70;5.70;;;;;;;;;;10232990;28;20083;-56
2023/11/18 16:53:10;;;;;;;5.53;5.03;;;;;;;;;;10232879;28;20042;-54
2023/11/18 16:58:09;;;;;;;12.45;8.65;;;;;;;;;;10233175;28;20091;-54
2023/11/18 17:03:07;;;;;;;9.88;8.25;;;;;;;;;;10233275;28;20080;-54
2023/11/18 17:08:05;;;;;;;7.75;6.75;;;;;;;;;;10232716;28;20065;-55
2023/11/18 17:13:08;;;;;;;4.15;3.75;;;;;;;;;;10232975;28;20479;-52
2023/11/18 17:18:06;;;;;;;8.15;6.63;;;;;;;;;;10231655;28;20482;-56
2023/11/18 17:23:05;;;;;;;5.25;4.60;;;;;;;;;;10232223;28;20073;-55
2023/11/18 17:28:04;;;;;;;16.13;13.98;;;;;;;;;;10232350;28;20506;-56
2023/11/18 17:33:04;;;;;;;10.90;7.45;;;;;;;;;;10231706;28;20498;-55
2023/11/18 17:38:04;;;;;;;9.23;7.32;;;;;;;;;;10232443;28;20084;-54
2023/11/18 17:43:04;;;;;;;6.82;4.97;;;;;;;;;;10231849;28;20105;-56
2023/11/18 17:48:06;;;;;;;11.02;8.32;;;;;;;;;;10230962;28;20069;-55
2023/11/18 17:53:04;;;;;;;7.80;5.88;;;;;;;;;;10230875;28;20073;-55
2023/11/18 17:58:03;;;;;;;11.43;10.20;;;;;;;;;;10231565;28;20088;-55
2023/11/18 18:03:01;;;;;;;6.30;5.70;;;;;;;;;;10231608;28;20087;-55
2023/11/18 18:08:00;;;;;;;4.05;3.60;;;;;;;;;;10230089;28;20069;-54
2023/11/18 18:12:59;;;;;;;3.00;2.70;;;;;;;;;;10232506;28;20158;-53
2023/11/18 18:17:57;;;;;;;5.05;3.53;;;;;;;;;;10235820;28;20064;-56
2023/11/18 18:22:55;;;;;;;6.35;5.75;;;;;;;;;;10233954;28;20065;-56
2023/11/18 18:27:55;;;;;;;6.30;5.25;;;;;;;;;;10223210;28;20502;-57
2023/11/18 18:32:53;;;;;;;6.63;4.28;;;;;;;;;;10217357;28;20083;-54
2023/11/18 18:37:51;;;;;;;5.47;4.95;;;;;;;;;;10223487;28;20076;-54
2023/11/18 18:42:50;;;;;;;3.63;3.28;;;;;;;;;;10233832;28;20078;-52
2023/11/18 18:47:49;;;;;;;4.03;3.47;;;;;;;;;;10235767;28;20073;-53
2023/11/18 18:52:48;;;;;;;6.20;2.95;;;;;;;;;;10235724;28;20069;-53
2023/11/18 18:57:46;;;;;;;46.35;31.13;;;;;;;;;;10235742;28;20088;-54
2023/11/18 19:02:46;;;;;;;7.63;6.82;;;;;;;;;;10236144;28;20088;-54
2023/11/18 19:07:46;;;;;;;5.85;5.25;;;;;;;;;;10231587;28;20271;-53
2023/11/18 19:12:45;;;;;;;5.40;4.18;;;;;;;;;;10234110;28;20062;-54
2023/11/18 19:17:44;;;;;;;3.72;3.33;;;;;;;;;;10221393;28;20070;-53
2023/11/18 19:22:43;;;;;;;4.30;3.67;;;;;;;;;;10217729;28;20080;-52
2023/11/18 19:27:42;;;;;;;3.75;3.40;;;;;;;;;;10217115;28;20070;-55
2023/11/18 19:32:42;;;;;;;11.13;7.15;;;;;;;;;;10230839;28;20092;-55
2023/11/18 19:37:41;;;;;;;7.65;6.35;;;;;;;;;;10231391;28;20104;-55
2023/11/18 19:42:39;;;;;;;6.53;5.55;;;;;;;;;;10232499;28;20076;-54
2023/11/18 19:47:39;;;;;;;10.63;6.22;;;;;;;;;;10231210;28;20503;-55
2023/11/18 19:52:37;;;;;;;5.68;5.10;;;;;;;;;;10231066;28;20084;-53
2023/11/18 19:57:35;;;;;;;3.95;3.53;;;;;;;;;;10230721;28;20076;-53
2023/11/18 20:02:34;;;;;;;3.72;2.95;;;;;;;;;;10222165;28;20153;-56
2023/11/18 20:07:34;;;;;;;2.97;2.67;;;;;;;;;;10228706;28;20097;-55
2023/11/18 20:12:32;;;;;;;5.80;5.03;;;;;;;;;;10228029;28;20414;-52
2023/11/18 20:17:31;;;;;;;3.60;3.30;;;;;;;;;;10232086;28;20061;-52
2023/11/18 20:22:30;;;;;;;6.10;4.20;;;;;;;;;;10230091;28;20077;-55
2023/11/18 20:27:29;;;;;;;7.22;6.47;;;;;;;;;;10227777;28;20065;-53
2023/11/18 20:32:28;;;;;;;4.72;4.20;;;;;;;;;;10228372;28;20065;-55
2023/11/18 20:37:26;;;;;;;9.05;7.60;;;;;;;;;;10228576;28;20073;-52
2023/11/18 20:42:25;;;;;;;10.32;7.95;;;;;;;;;;10228975;28;20148;-54
2023/11/18 20:47:25;;;;;;;6.50;5.25;;;;;;;;;;10228431;28;20076;-55
2023/11/18 20:52:25;;;;;;;6.93;5.53;;;;;;;;;;10231619;28;20068;-53
2023/11/18 20:57:23;;;;;;;5.53;4.90;;;;;;;;;;10231379;28;20068;-55
2023/11/18 21:02:22;;;;;;;7.07;5.28;;;;;;;;;;10228637;28;20088;-52
2023/11/18 21:07:21;;;;;;;6.05;4.07;;;;;;;;;;10231916;28;20099;-54
2023/11/18 21:12:20;;;;;;;7.63;5.50;;;;;;;;;;10230127;28;20080;-56
2023/11/18 21:17:19;;;;;;;5.18;4.22;;;;;;;;;;10232246;28;20073;-54
2023/11/18 21:22:18;;;;;;;4.07;3.15;;;;;;;;;;10232475;28;20510;-55
2023/11/18 21:27:18;;;;;;;6.40;4.72;;;;;;;;;;10232110;28;20073;-55
2023/11/18 21:32:16;;;;;;;6.82;5.07;;;;;;;;;;10230458;28;20065;-55
2023/11/18 21:37:14;;;;;;;8.07;5.00;;;;;;;;;;10229576;28;20072;-53
2023/11/18 21:42:13;;;;;;;3.33;2.70;;;;;;;;;;10228653;28;20510;-53
2023/11/18 21:47:13;;;;;;;5.20;3.70;;;;;;;;;;10231263;28;20081;-54
2023/11/18 21:52:11;;;;;;;6.57;3.67;;;;;;;;;;10238789;28;20065;-53
2023/11/18 21:57:10;;;;;;;10.93;8.00;;;;;;;;;;10239687;28;20479;-53
2023/11/18 22:02:09;;;;;;;8.45;5.55;;;;;;;;;;10239248;28;20085;-53
2023/11/18 22:07:11;;;;;;;9.45;6.15;;;;;;;;;;10237785;28;20075;-53
2023/11/18 22:12:09;;;;;;;4.50;3.40;;;;;;;;;;10237973;28;20065;-53
2023/11/18 22:17:07;;;;;;;9.30;6.07;;;;;;;;;;10238923;28;20680;-54
2023/11/18 22:22:06;;;;;;;7.22;5.10;;;;;;;;;;10238040;28;20088;-54
2023/11/18 22:27:09;;;;;;;4.97;3.67;;;;;;;;;;10238291;28;20085;-51
2023/11/18 22:32:08;;;;;;;3.33;2.95;;;;;;;;;;10238585;28;20458;-50
2023/11/18 22:37:07;;;;;;;3.85;3.22;;;;;;;;;;10237592;28;20502;-53
2023/11/18 22:42:07;;;;;;;3.58;3.25;;;;;;;;;;10236832;28;20073;-52
2023/11/18 22:47:05;;;;;;;3.88;3.47;;;;;;;;;;10237370;28;20080;-54
2023/11/18 22:52:03;;;;;;;3.67;2.92;;;;;;;;;;10237855;28;20080;-52
2023/11/18 22:57:03;;;;;;;3.50;3.20;;;;;;;;;;10236737;28;20511;-54
2023/11/18 23:02:03;;;;;;;5.75;3.80;;;;;;;;;;10233186;28;20091;-53
2023/11/18 23:07:01;;;;;;;5.43;2.97;;;;;;;;;;10234284;28;20092;-55
2023/11/18 23:12:00;;;;;;;3.05;2.70;;;;;;;;;;10234117;28;20087;-53
2023/11/18 23:16:59;;;;;;;3.20;2.60;;;;;;;;;;10234126;28;20515;-53
2023/11/18 23:22:07;;;;;;;2.88;2.67;;;;;;;;;;10235018;28;20067;-54
2023/11/18 23:27:06;;;;;;;2.50;2.33;;;;;;;;;;10250633;28;20080;-52
2023/11/18 23:32:06;;;;;;;2.80;2.33;;;;;;;;;;10235935;28;20075;-54
2023/11/18 23:37:05;;;;;;;2.78;2.58;;;;;;;;;;10235558;28;20527;-52
2023/11/18 23:42:05;;;;;;;6.75;6.05;;;;;;;;;;10235608;28;20104;-53
2023/11/18 23:47:05;;;;;;;7.65;5.80;;;;;;;;;;10234247;28;20130;-51
2023/11/18 23:52:03;;;;;;;3.40;2.95;;;;;;;;;;10235099;28;20068;-53
2023/11/18 23:57:02;;;;;;;6.47;5.88;;;;;;;;;;10233353;28;20049;-52
